sensor_id;sensor_type;location;lat;lon;timestamp;pressure;altitude;pressure_sealevel;temperature;humidity
7768;BME280;3928;42.626;23.382;2023-07-16T00:01:42;94437.97;;;25.62;84.08
7768;BME280;3928;42.626;23.382;2023-07-16T00:04:08;94434.56;;;25.49;84.79
7768;BME280;3928;42.626;23.382;2023-07-16T00:06:35;94438.19;;;25.59;83.76
7768;BME280;3928;42.626;23.382;2023-07-16T00:09:03;94437.78;;;25.53;84.16
7768;BME280;3928;42.626;23.382;2023-07-16T00:11:30;94427.00;;;25.45;84.46
7768;BME280;3928;42.626;23.382;2023-07-16T00:13:57;94432.59;;;25.64;84.10
7768;BME280;3928;42.626;23.382;2023-07-16T00:16:23;94430.25;;;25.48;84.56
7768;BME280;3928;42.626;23.382;2023-07-16T00:18:50;94428.28;;;25.63;83.56
7768;BME280;3928;42.626;23.382;2023-07-16T00:21:17;94428.16;;;25.64;83.13
7768;BME280;3928;42.626;23.382;2023-07-16T00:23:44;94435.69;;;25.58;83.39
7768;BME280;3928;42.626;23.382;2023-07-16T00:26:12;94435.03;;;25.54;83.75
7768;BME280;3928;42.626;23.382;2023-07-16T00:28:39;94414.50;;;25.48;83.29
7768;BME280;3928;42.626;23.382;2023-07-16T00:31:06;94443.88;;;25.53;83.37
7768;BME280;3928;42.626;23.382;2023-07-16T00:33:33;94436.22;;;25.50;83.82
7768;BME280;3928;42.626;23.382;2023-07-16T00:35:59;94438.50;;;25.55;83.45
7768;BME280;3928;42.626;23.382;2023-07-16T00:38:26;94441.31;;;25.64;82.75
7768;BME280;3928;42.626;23.382;2023-07-16T00:40:53;94439.75;;;25.62;82.72
7768;BME280;3928;42.626;23.382;2023-07-16T00:43:21;94440.19;;;25.56;82.64
7768;BME280;3928;42.626;23.382;2023-07-16T00:45:49;94432.59;;;25.64;82.69
7768;BME280;3928;42.626;23.382;2023-07-16T00:48:16;94436.06;;;25.64;82.41
7768;BME280;3928;42.626;23.382;2023-07-16T00:50:42;94433.31;;;25.42;83.44
7768;BME280;3928;42.626;23.382;2023-07-16T00:53:10;94431.34;;;25.33;84.39
7768;BME280;3928;42.626;23.382;2023-07-16T00:55:37;94419.31;;;25.18;84.45
7768;BME280;3928;42.626;23.382;2023-07-16T00:58:06;94433.06;;;25.21;84.09
7768;BME280;3928;42.626;23.382;2023-07-16T01:00:35;94430.06;;;25.15;84.61
7768;BME280;3928;42.626;23.382;2023-07-16T01:03:03;94413.91;;;24.95;85.01
7768;BME280;3928;42.626;23.382;2023-07-16T01:05:34;94431.50;;;25.19;84.97
7768;BME280;3928;42.626;23.382;2023-07-16T01:08:07;94427.28;;;25.29;84.46
7768;BME280;3928;42.626;23.382;2023-07-16T01:10:36;94430.44;;;25.34;83.56
7768;BME280;3928;42.626;23.382;2023-07-16T01:13:03;94428.94;;;25.30;83.22
7768;BME280;3928;42.626;23.382;2023-07-16T01:15:30;94419.94;;;25.21;83.60
7768;BME280;3928;42.626;23.382;2023-07-16T01:17:59;94426.47;;;25.16;84.09
7768;BME280;3928;42.626;23.382;2023-07-16T01:20:26;94424.59;;;25.18;84.03
7768;BME280;3928;42.626;23.382;2023-07-16T01:23:07;94428.16;;;25.17;83.84
7768;BME280;3928;42.626;23.382;2023-07-16T01:25:52;94422.13;;;25.27;83.77
7768;BME280;3928;42.626;23.382;2023-07-16T01:28:53;94432.09;;;25.35;82.92
7768;BME280;3928;42.626;23.382;2023-07-16T01:31:25;94426.91;;;25.46;82.45
7768;BME280;3928;42.626;23.382;2023-07-16T01:33:53;94425.50;;;25.53;81.34
7768;BME280;3928;42.626;23.382;2023-07-16T01:36:21;94423.31;;;25.47;81.60
7768;BME280;3928;42.626;23.382;2023-07-16T01:38:49;94414.50;;;25.48;81.39
7768;BME280;3928;42.626;23.382;2023-07-16T01:41:16;94416.16;;;25.49;81.10
7768;BME280;3928;42.626;23.382;2023-07-16T01:43:44;94418.78;;;25.49;80.86
7768;BME280;3928;42.626;23.382;2023-07-16T01:46:11;94422.75;;;25.55;80.83
7768;BME280;3928;42.626;23.382;2023-07-16T01:48:39;94375.41;;;25.20;80.41
7768;BME280;3928;42.626;23.382;2023-07-16T01:51:06;94426.09;;;25.33;81.64
7768;BME280;3928;42.626;23.382;2023-07-16T01:53:33;94425.34;;;25.07;82.88
7768;BME280;3928;42.626;23.382;2023-07-16T01:56:00;94429.22;;;25.14;82.98
7768;BME280;3928;42.626;23.382;2023-07-16T01:58:27;94427.34;;;25.03;83.56
7768;BME280;3928;42.626;23.382;2023-07-16T02:00:54;94432.38;;;25.06;83.36
7768;BME280;3928;42.626;23.382;2023-07-16T02:03:21;94434.28;;;24.92;83.49
7768;BME280;3928;42.626;23.382;2023-07-16T02:05:49;94431.31;;;24.96;83.75
7768;BME280;3928;42.626;23.382;2023-07-16T02:08:16;94431.78;;;24.90;84.26
7768;BME280;3928;42.626;23.382;2023-07-16T02:10:43;94385.41;;;24.65;84.12
7768;BME280;3928;42.626;23.382;2023-07-16T02:13:10;94433.78;;;24.87;84.65
7768;BME280;3928;42.626;23.382;2023-07-16T02:15:37;94434.94;;;24.83;84.26
7768;BME280;3928;42.626;23.382;2023-07-16T02:18:04;94432.63;;;24.78;84.41
7768;BME280;3928;42.626;23.382;2023-07-16T02:20:30;94418.34;;;24.82;83.93
7768;BME280;3928;42.626;23.382;2023-07-16T02:22:59;94423.47;;;24.84;83.84
7768;BME280;3928;42.626;23.382;2023-07-16T02:25:26;94431.78;;;24.77;84.63
7768;BME280;3928;42.626;23.382;2023-07-16T02:27:52;94434.16;;;24.93;83.93
7768;BME280;3928;42.626;23.382;2023-07-16T02:30:19;94422.41;;;24.99;83.10
7768;BME280;3928;42.626;23.382;2023-07-16T02:32:46;94429.53;;;25.10;83.22
7768;BME280;3928;42.626;23.382;2023-07-16T02:35:13;94432.81;;;25.13;82.18
7768;BME280;3928;42.626;23.382;2023-07-16T02:37:40;94427.53;;;25.13;82.16
7768;BME280;3928;42.626;23.382;2023-07-16T02:40:09;94431.97;;;25.13;82.61
7768;BME280;3928;42.626;23.382;2023-07-16T02:42:35;94425.03;;;25.12;82.06
7768;BME280;3928;42.626;23.382;2023-07-16T02:45:03;94413.34;;;25.16;81.27
7768;BME280;3928;42.626;23.382;2023-07-16T02:47:30;94416.03;;;25.03;82.07
7768;BME280;3928;42.626;23.382;2023-07-16T02:49:57;94429.94;;;25.16;81.53
7768;BME280;3928;42.626;23.382;2023-07-16T02:52:23;94432.47;;;25.18;81.32
7768;BME280;3928;42.626;23.382;2023-07-16T02:54:50;94440.25;;;25.06;81.68
7768;BME280;3928;42.626;23.382;2023-07-16T02:57:20;94434.41;;;24.90;82.58
7768;BME280;3928;42.626;23.382;2023-07-16T02:59:47;94436.38;;;24.99;82.46
7768;BME280;3928;42.626;23.382;2023-07-16T03:02:14;94442.88;;;25.06;82.24
7768;BME280;3928;42.626;23.382;2023-07-16T03:04:40;94447.06;;;25.09;81.37
7768;BME280;3928;42.626;23.382;2023-07-16T03:07:08;94444.19;;;25.01;81.51
7768;BME280;3928;42.626;23.382;2023-07-16T03:09:34;94434.16;;;25.06;81.53
7768;BME280;3928;42.626;23.382;2023-07-16T03:12:01;94442.06;;;25.06;81.44
7768;BME280;3928;42.626;23.382;2023-07-16T03:14:29;94439.63;;;25.16;80.69
7768;BME280;3928;42.626;23.382;2023-07-16T03:16:56;94444.41;;;25.22;80.76
7768;BME280;3928;42.626;23.382;2023-07-16T03:19:23;94446.34;;;25.07;81.35
7768;BME280;3928;42.626;23.382;2023-07-16T03:21:50;94446.97;;;24.98;81.94
7768;BME280;3928;42.626;23.382;2023-07-16T03:24:16;94440.91;;;25.10;81.00
7768;BME280;3928;42.626;23.382;2023-07-16T03:26:43;94444.19;;;25.01;79.94
7768;BME280;3928;42.626;23.382;2023-07-16T03:29:10;94440.19;;;24.70;82.08
7768;BME280;3928;42.626;23.382;2023-07-16T03:31:38;94448.28;;;24.79;81.63
7768;BME280;3928;42.626;23.382;2023-07-16T03:34:05;94448.69;;;24.61;82.85
7768;BME280;3928;42.626;23.382;2023-07-16T03:36:32;94452.69;;;24.79;81.31
7768;BME280;3928;42.626;23.382;2023-07-16T03:38:59;94449.63;;;24.72;81.58
7768;BME280;3928;42.626;23.382;2023-07-16T03:41:25;94450.56;;;24.84;81.39
7768;BME280;3928;42.626;23.382;2023-07-16T03:43:52;94458.66;;;24.81;81.24
7768;BME280;3928;42.626;23.382;2023-07-16T03:46:19;94454.69;;;24.75;81.55
7768;BME280;3928;42.626;23.382;2023-07-16T03:48:47;94453.53;;;24.79;81.16
7768;BME280;3928;42.626;23.382;2023-07-16T03:51:14;94461.19;;;24.70;81.63
7768;BME280;3928;42.626;23.382;2023-07-16T03:53:42;94446.53;;;24.55;82.29
7768;BME280;3928;42.626;23.382;2023-07-16T03:56:09;94462.25;;;24.55;82.36
7768;BME280;3928;42.626;23.382;2023-07-16T03:58:36;94460.03;;;24.36;83.66
7768;BME280;3928;42.626;23.382;2023-07-16T04:01:03;94455.75;;;24.47;82.79
7768;BME280;3928;42.626;23.382;2023-07-16T04:03:29;94462.03;;;24.58;82.52
7768;BME280;3928;42.626;23.382;2023-07-16T04:06:02;94454.91;;;24.60;82.27
7768;BME280;3928;42.626;23.382;2023-07-16T04:08:30;94453.66;;;24.40;82.47
7768;BME280;3928;42.626;23.382;2023-07-16T04:10:57;94465.28;;;24.61;81.66
7768;BME280;3928;42.626;23.382;2023-07-16T04:13:24;94473.06;;;24.75;81.49
7768;BME280;3928;42.626;23.382;2023-07-16T04:15:51;94461.81;;;24.73;81.37
7768;BME280;3928;42.626;23.382;2023-07-16T04:18:20;94463.09;;;24.68;81.57
7768;BME280;3928;42.626;23.382;2023-07-16T04:20:47;94463.28;;;24.77;80.90
7768;BME280;3928;42.626;23.382;2023-07-16T04:23:15;94464.53;;;24.85;80.88
7768;BME280;3928;42.626;23.382;2023-07-16T04:25:42;94462.00;;;24.83;80.69
7768;BME280;3928;42.626;23.382;2023-07-16T04:28:09;94464.84;;;25.05;79.40
7768;BME280;3928;42.626;23.382;2023-07-16T04:30:36;94471.63;;;25.21;78.64
7768;BME280;3928;42.626;23.382;2023-07-16T04:33:02;94464.78;;;25.31;77.97
7768;BME280;3928;42.626;23.382;2023-07-16T04:35:29;94465.00;;;25.28;77.36
7768;BME280;3928;42.626;23.382;2023-07-16T04:37:56;94465.72;;;25.30;77.20
7768;BME280;3928;42.626;23.382;2023-07-16T04:40:24;94464.19;;;25.51;76.31
7768;BME280;3928;42.626;23.382;2023-07-16T04:42:51;94474.88;;;25.61;75.38
7768;BME280;3928;42.626;23.382;2023-07-16T04:45:18;94473.56;;;25.66;75.46
7768;BME280;3928;42.626;23.382;2023-07-16T04:47:44;94472.94;;;25.76;75.30
7768;BME280;3928;42.626;23.382;2023-07-16T04:50:11;94476.22;;;25.90;74.77
7768;BME280;3928;42.626;23.382;2023-07-16T04:52:38;94460.56;;;25.89;74.77
7768;BME280;3928;42.626;23.382;2023-07-16T04:55:06;94479.75;;;26.02;75.11
7768;BME280;3928;42.626;23.382;2023-07-16T04:57:34;94480.75;;;26.12;74.23
7768;BME280;3928;42.626;23.382;2023-07-16T05:00:01;94485.00;;;26.02;74.35
7768;BME280;3928;42.626;23.382;2023-07-16T05:02:28;94489.81;;;26.08;74.61
7768;BME280;3928;42.626;23.382;2023-07-16T05:04:55;94487.66;;;26.13;74.21
7768;BME280;3928;42.626;23.382;2023-07-16T05:07:22;94483.13;;;26.15;74.01
7768;BME280;3928;42.626;23.382;2023-07-16T05:09:48;94475.25;;;26.15;74.08
7768;BME280;3928;42.626;23.382;2023-07-16T05:12:15;94466.69;;;26.36;73.01
7768;BME280;3928;42.626;23.382;2023-07-16T05:14:45;94492.38;;;26.56;72.09
7768;BME280;3928;42.626;23.382;2023-07-16T05:17:12;94488.41;;;26.62;71.29
7768;BME280;3928;42.626;23.382;2023-07-16T05:19:39;94494.31;;;26.65;71.38
7768;BME280;3928;42.626;23.382;2023-07-16T05:22:06;94490.00;;;26.75;71.37
7768;BME280;3928;42.626;23.382;2023-07-16T05:24:33;94489.28;;;26.96;70.73
7768;BME280;3928;42.626;23.382;2023-07-16T05:27:00;94489.81;;;27.12;69.91
7768;BME280;3928;42.626;23.382;2023-07-16T05:29:27;94489.31;;;27.18;69.58
7768;BME280;3928;42.626;23.382;2023-07-16T05:31:55;94489.06;;;27.10;70.09
7768;BME280;3928;42.626;23.382;2023-07-16T05:34:22;94484.63;;;27.33;69.91
7768;BME280;3928;42.626;23.382;2023-07-16T05:36:48;94492.75;;;27.52;69.12
7768;BME280;3928;42.626;23.382;2023-07-16T05:39:15;94495.72;;;27.70;68.04
7768;BME280;3928;42.626;23.382;2023-07-16T05:41:42;94481.09;;;27.77;68.28
7768;BME280;3928;42.626;23.382;2023-07-16T05:44:10;94493.47;;;28.09;67.97
7768;BME280;3928;42.626;23.382;2023-07-16T05:46:36;94494.97;;;28.22;67.39
7768;BME280;3928;42.626;23.382;2023-07-16T05:49:05;94498.72;;;28.41;66.26
7768;BME280;3928;42.626;23.382;2023-07-16T05:51:32;94500.34;;;28.53;65.61
7768;BME280;3928;42.626;23.382;2023-07-16T05:53:59;94502.41;;;28.70;64.78
7768;BME280;3928;42.626;23.382;2023-07-16T05:56:26;94491.69;;;28.72;63.37
7768;BME280;3928;42.626;23.382;2023-07-16T05:58:52;94506.03;;;28.90;63.61
7768;BME280;3928;42.626;23.382;2023-07-16T06:01:19;94515.28;;;29.05;62.25
7768;BME280;3928;42.626;23.382;2023-07-16T06:03:46;94508.63;;;29.11;62.33
7768;BME280;3928;42.626;23.382;2023-07-16T06:06:14;94512.84;;;29.23;61.74
7768;BME280;3928;42.626;23.382;2023-07-16T06:08:41;94514.56;;;29.34;60.64
7768;BME280;3928;42.626;23.382;2023-07-16T06:11:08;94511.59;;;29.48;60.63
7768;BME280;3928;42.626;23.382;2023-07-16T06:13:34;94515.22;;;29.57;60.27
7768;BME280;3928;42.626;23.382;2023-07-16T06:16:01;94511.34;;;29.70;59.36
7768;BME280;3928;42.626;23.382;2023-07-16T06:18:28;94510.69;;;29.78;59.03
7768;BME280;3928;42.626;23.382;2023-07-16T06:20:55;94508.06;;;29.88;57.68
7768;BME280;3928;42.626;23.382;2023-07-16T06:23:23;94507.25;;;29.97;59.03
7768;BME280;3928;42.626;23.382;2023-07-16T06:25:54;94434.50;;;29.62;58.51
7768;BME280;3928;42.626;23.382;2023-07-16T06:28:21;94508.69;;;30.20;58.14
7768;BME280;3928;42.626;23.382;2023-07-16T06:30:47;94511.19;;;30.32;57.92
7768;BME280;3928;42.626;23.382;2023-07-16T06:33:14;94503.06;;;30.43;56.39
7768;BME280;3928;42.626;23.382;2023-07-16T06:35:44;94512.00;;;30.51;56.30
7768;BME280;3928;42.626;23.382;2023-07-16T06:38:11;94511.47;;;30.67;56.28
7768;BME280;3928;42.626;23.382;2023-07-16T06:40:39;94503.91;;;30.72;56.59
7768;BME280;3928;42.626;23.382;2023-07-16T06:43:06;94506.97;;;30.77;55.82
7768;BME280;3928;42.626;23.382;2023-07-16T06:45:33;94504.75;;;30.82;54.97
7768;BME280;3928;42.626;23.382;2023-07-16T06:48:00;94498.44;;;30.93;54.78
7768;BME280;3928;42.626;23.382;2023-07-16T06:50:26;94503.28;;;30.98;54.98
7768;BME280;3928;42.626;23.382;2023-07-16T06:52:53;94500.78;;;31.06;54.14
7768;BME280;3928;42.626;23.382;2023-07-16T06:55:20;94500.16;;;31.12;53.55
7768;BME280;3928;42.626;23.382;2023-07-16T06:57:48;94502.00;;;31.21;53.78
7768;BME280;3928;42.626;23.382;2023-07-16T07:00:15;94502.34;;;31.36;53.84
7768;BME280;3928;42.626;23.382;2023-07-16T07:02:42;94503.69;;;31.50;52.83
7768;BME280;3928;42.626;23.382;2023-07-16T07:05:09;94503.63;;;31.59;52.42
7768;BME280;3928;42.626;23.382;2023-07-16T07:07:36;94507.22;;;31.68;51.87
7768;BME280;3928;42.626;23.382;2023-07-16T07:10:03;94496.44;;;31.79;52.25
7768;BME280;3928;42.626;23.382;2023-07-16T07:12:30;94495.84;;;31.85;51.28
7768;BME280;3928;42.626;23.382;2023-07-16T07:15:04;94504.56;;;31.95;51.80
7768;BME280;3928;42.626;23.382;2023-07-16T07:17:31;94457.00;;;31.84;50.78
7768;BME280;3928;42.626;23.382;2023-07-16T07:19:58;94506.03;;;32.25;50.28
7768;BME280;3928;42.626;23.382;2023-07-16T07:22:25;94503.59;;;32.32;50.61
7768;BME280;3928;42.626;23.382;2023-07-16T07:24:52;94496.63;;;32.31;49.16
7768;BME280;3928;42.626;23.382;2023-07-16T07:27:19;94493.38;;;32.37;49.93
7768;BME280;3928;42.626;23.382;2023-07-16T07:29:46;94491.09;;;32.42;49.24
7768;BME280;3928;42.626;23.382;2023-07-16T07:32:18;94496.47;;;32.50;48.83
7768;BME280;3928;42.626;23.382;2023-07-16T07:34:45;94493.66;;;32.52;48.39
7768;BME280;3928;42.626;23.382;2023-07-16T07:37:12;94496.22;;;32.62;47.96
7768;BME280;3928;42.626;23.382;2023-07-16T07:39:39;94497.28;;;32.69;47.75
7768;BME280;3928;42.626;23.382;2023-07-16T07:42:06;94497.28;;;32.69;47.21
7768;BME280;3928;42.626;23.382;2023-07-16T07:44:33;94489.41;;;32.59;48.29
7768;BME280;3928;42.626;23.382;2023-07-16T07:46:59;94493.31;;;32.73;48.33
7768;BME280;3928;42.626;23.382;2023-07-16T07:49:28;94482.38;;;32.76;47.83
7768;BME280;3928;42.626;23.382;2023-07-16T07:51:54;94495.97;;;32.91;47.73
7768;BME280;3928;42.626;23.382;2023-07-16T07:54:21;94495.19;;;32.98;47.28
7768;BME280;3928;42.626;23.382;2023-07-16T07:56:48;94490.13;;;33.13;46.03
7768;BME280;3928;42.626;23.382;2023-07-16T07:59:15;94495.31;;;33.23;46.06
7768;BME280;3928;42.626;23.382;2023-07-16T08:01:42;94491.06;;;33.30;46.43
7768;BME280;3928;42.626;23.382;2023-07-16T08:04:08;94493.63;;;33.39;45.61
7768;BME280;3928;42.626;23.382;2023-07-16T08:06:36;94498.34;;;33.54;44.94
7768;BME280;3928;42.626;23.382;2023-07-16T08:09:03;94493.41;;;33.67;44.88
7768;BME280;3928;42.626;23.382;2023-07-16T08:11:30;94499.72;;;33.74;45.68
7768;BME280;3928;42.626;23.382;2023-07-16T08:13:57;94486.69;;;33.89;44.96
7768;BME280;3928;42.626;23.382;2023-07-16T08:16:24;94493.88;;;34.13;43.97
7768;BME280;3928;42.626;23.382;2023-07-16T08:18:50;94490.56;;;34.27;43.65
7768;BME280;3928;42.626;23.382;2023-07-16T08:21:17;94490.75;;;34.42;43.92
7768;BME280;3928;42.626;23.382;2023-07-16T08:23:47;94479.06;;;34.26;43.59
7768;BME280;3928;42.626;23.382;2023-07-16T08:26:13;94493.44;;;34.42;43.60
7768;BME280;3928;42.626;23.382;2023-07-16T08:28:40;94492.75;;;34.56;43.25
7768;BME280;3928;42.626;23.382;2023-07-16T08:31:07;94490.44;;;34.69;42.51
7768;BME280;3928;42.626;23.382;2023-07-16T08:33:34;94500.09;;;34.86;41.62
7768;BME280;3928;42.626;23.382;2023-07-16T08:36:00;94498.94;;;35.05;42.40
7768;BME280;3928;42.626;23.382;2023-07-16T08:38:27;94500.06;;;35.11;41.63
7768;BME280;3928;42.626;23.382;2023-07-16T08:40:55;94506.41;;;35.18;41.65
7768;BME280;3928;42.626;23.382;2023-07-16T08:43:22;94502.22;;;35.24;40.92
7768;BME280;3928;42.626;23.382;2023-07-16T08:45:50;94507.72;;;35.30;42.29
7768;BME280;3928;42.626;23.382;2023-07-16T08:48:17;94488.50;;;35.35;40.97
7768;BME280;3928;42.626;23.382;2023-07-16T08:50:46;94496.63;;;35.58;40.32
7768;BME280;3928;42.626;23.382;2023-07-16T08:53:15;94488.22;;;35.77;40.35
7768;BME280;3928;42.626;23.382;2023-07-16T08:55:44;94484.16;;;35.89;40.09
7768;BME280;3928;42.626;23.382;2023-07-16T08:58:13;94487.84;;;35.88;39.86
7768;BME280;3928;42.626;23.382;2023-07-16T09:00:41;94490.47;;;35.96;39.49
7768;BME280;3928;42.626;23.382;2023-07-16T09:03:10;94495.47;;;35.99;39.23
7768;BME280;3928;42.626;23.382;2023-07-16T09:05:38;94485.53;;;36.08;38.96
7768;BME280;3928;42.626;23.382;2023-07-16T09:08:06;94487.34;;;36.16;40.25
7768;BME280;3928;42.626;23.382;2023-07-16T09:10:33;94485.91;;;36.36;38.90
7768;BME280;3928;42.626;23.382;2023-07-16T09:13:00;94480.44;;;36.52;39.58
7768;BME280;3928;42.626;23.382;2023-07-16T09:15:29;94485.22;;;36.57;38.81
7768;BME280;3928;42.626;23.382;2023-07-16T09:17:56;94483.03;;;36.60;38.91
7768;BME280;3928;42.626;23.382;2023-07-16T09:20:23;94474.00;;;36.62;38.98
7768;BME280;3928;42.626;23.382;2023-07-16T09:22:50;94468.69;;;36.76;39.01
7768;BME280;3928;42.626;23.382;2023-07-16T09:25:16;94453.28;;;36.78;38.16
7768;BME280;3928;42.626;23.382;2023-07-16T09:27:43;94471.72;;;36.96;39.00
7768;BME280;3928;42.626;23.382;2023-07-16T09:30:15;94469.69;;;36.98;38.47
7768;BME280;3928;42.626;23.382;2023-07-16T09:32:43;94473.13;;;37.07;38.96
7768;BME280;3928;42.626;23.382;2023-07-16T09:35:11;94474.47;;;37.17;38.00
7768;BME280;3928;42.626;23.382;2023-07-16T09:37:38;94473.34;;;37.35;38.20
7768;BME280;3928;42.626;23.382;2023-07-16T09:40:06;94476.56;;;37.45;37.48
7768;BME280;3928;42.626;23.382;2023-07-16T09:42:37;94468.78;;;37.50;36.64
7768;BME280;3928;42.626;23.382;2023-07-16T09:45:06;94464.28;;;37.36;37.99
7768;BME280;3928;42.626;23.382;2023-07-16T09:47:34;94462.72;;;37.56;38.27
7768;BME280;3928;42.626;23.382;2023-07-16T09:50:02;94459.16;;;37.70;37.79
7768;BME280;3928;42.626;23.382;2023-07-16T09:52:30;94451.09;;;37.34;36.64
7768;BME280;3928;42.626;23.382;2023-07-16T09:55:01;94455.94;;;37.16;37.19
7768;BME280;3928;42.626;23.382;2023-07-16T09:57:30;94461.88;;;36.74;37.58
7768;BME280;3928;42.626;23.382;2023-07-16T10:00:00;94455.50;;;36.37;38.36
7768;BME280;3928;42.626;23.382;2023-07-16T10:02:30;94460.78;;;35.91;39.22
7768;BME280;3928;42.626;23.382;2023-07-16T10:04:57;94452.88;;;36.21;39.67
7768;BME280;3928;42.626;23.382;2023-07-16T10:07:25;94457.44;;;36.43;38.88
7768;BME280;3928;42.626;23.382;2023-07-16T10:09:53;94448.88;;;36.71;38.90
7768;BME280;3928;42.626;23.382;2023-07-16T10:12:23;94440.19;;;37.06;38.24
7768;BME280;3928;42.626;23.382;2023-07-16T10:14:51;94448.41;;;37.34;37.84
7768;BME280;3928;42.626;23.382;2023-07-16T10:17:20;94445.72;;;37.49;37.94
7768;BME280;3928;42.626;23.382;2023-07-16T10:19:54;94441.06;;;37.72;37.83
7768;BME280;3928;42.626;23.382;2023-07-16T10:22:35;94445.63;;;38.08;35.85
7768;BME280;3928;42.626;23.382;2023-07-16T10:25:03;94442.53;;;37.90;35.72
7768;BME280;3928;42.626;23.382;2023-07-16T10:27:32;94446.50;;;37.94;35.14
7768;BME280;3928;42.626;23.382;2023-07-16T10:30:00;94438.41;;;37.58;35.62
7768;BME280;3928;42.626;23.382;2023-07-16T10:32:30;94395.81;;;36.59;36.37
7768;BME280;3928;42.626;23.382;2023-07-16T10:34:57;94432.22;;;37.28;36.25
7768;BME280;3928;42.626;23.382;2023-07-16T10:37:25;94429.25;;;37.52;37.63
7768;BME280;3928;42.626;23.382;2023-07-16T10:39:54;94425.56;;;37.83;37.40
7768;BME280;3928;42.626;23.382;2023-07-16T10:42:23;94433.75;;;38.17;35.99
7768;BME280;3928;42.626;23.382;2023-07-16T10:44:50;94420.88;;;38.49;35.55
7768;BME280;3928;42.626;23.382;2023-07-16T10:47:19;94436.34;;;38.96;36.30
7768;BME280;3928;42.626;23.382;2023-07-16T10:49:47;94435.44;;;39.10;34.32
7768;BME280;3928;42.626;23.382;2023-07-16T10:52:14;94438.22;;;39.30;34.38
7768;BME280;3928;42.626;23.382;2023-07-16T10:54:41;94435.22;;;39.46;33.52
7768;BME280;3928;42.626;23.382;2023-07-16T10:57:10;94425.84;;;39.70;33.60
7768;BME280;3928;42.626;23.382;2023-07-16T10:59:38;94423.94;;;39.58;32.15
7768;BME280;3928;42.626;23.382;2023-07-16T11:02:08;94423.94;;;38.95;32.17
7768;BME280;3928;42.626;23.382;2023-07-16T11:04:36;94415.59;;;38.83;32.58
7768;BME280;3928;42.626;23.382;2023-07-16T11:07:05;94420.06;;;38.48;34.17
7768;BME280;3928;42.626;23.382;2023-07-16T11:09:33;94421.75;;;38.77;33.66
7768;BME280;3928;42.626;23.382;2023-07-16T11:12:08;94415.16;;;39.08;33.77
7768;BME280;3928;42.626;23.382;2023-07-16T11:14:35;94418.69;;;39.43;33.25
7768;BME280;3928;42.626;23.382;2023-07-16T11:17:05;94407.63;;;39.59;31.98
7768;BME280;3928;42.626;23.382;2023-07-16T11:19:35;94415.34;;;39.82;32.49
7768;BME280;3928;42.626;23.382;2023-07-16T11:22:04;94417.94;;;40.10;31.52
7768;BME280;3928;42.626;23.382;2023-07-16T11:24:38;94411.13;;;40.34;30.91
7768;BME280;3928;42.626;23.382;2023-07-16T11:27:06;94404.75;;;40.48;30.34
7768;BME280;3928;42.626;23.382;2023-07-16T11:29:40;94401.63;;;40.38;29.84
7768;BME280;3928;42.626;23.382;2023-07-16T11:32:08;94407.31;;;39.95;30.75
7768;BME280;3928;42.626;23.382;2023-07-16T11:34:34;94401.56;;;39.98;30.88
7768;BME280;3928;42.626;23.382;2023-07-16T11:37:09;94407.63;;;39.66;30.19
7768;BME280;3928;42.626;23.382;2023-07-16T11:39:36;94408.69;;;39.30;31.39
7768;BME280;3928;42.626;23.382;2023-07-16T11:42:04;94395.22;;;38.89;30.71
7768;BME280;3928;42.626;23.382;2023-07-16T11:44:34;94394.44;;;38.67;32.30
7768;BME280;3928;42.626;23.382;2023-07-16T11:47:03;94384.66;;;37.95;33.28
7768;BME280;3928;42.626;23.382;2023-07-16T11:49:30;94408.88;;;38.02;32.18
7768;BME280;3928;42.626;23.382;2023-07-16T11:51:58;94400.19;;;38.21;32.21
7768;BME280;3928;42.626;23.382;2023-07-16T11:54:25;94399.59;;;38.47;32.65
7768;BME280;3928;42.626;23.382;2023-07-16T11:56:52;94409.38;;;38.76;33.18
7768;BME280;3928;42.626;23.382;2023-07-16T11:59:18;94401.19;;;39.19;32.24
7768;BME280;3928;42.626;23.382;2023-07-16T12:01:47;94397.06;;;39.58;31.74
7768;BME280;3928;42.626;23.382;2023-07-16T12:04:16;94401.25;;;39.73;31.02
7768;BME280;3928;42.626;23.382;2023-07-16T12:06:43;94394.50;;;39.97;30.47
7768;BME280;3928;42.626;23.382;2023-07-16T12:09:10;94391.25;;;40.22;30.48
7768;BME280;3928;42.626;23.382;2023-07-16T12:11:37;94401.66;;;40.51;29.70
7768;BME280;3928;42.626;23.382;2023-07-16T12:14:05;94398.75;;;40.79;29.39
7768;BME280;3928;42.626;23.382;2023-07-16T12:16:31;94392.59;;;40.85;28.24
7768;BME280;3928;42.626;23.382;2023-07-16T12:18:58;94384.47;;;40.99;29.17
7768;BME280;3928;42.626;23.382;2023-07-16T12:21:26;94388.56;;;41.14;28.94
7768;BME280;3928;42.626;23.382;2023-07-16T12:23:53;94390.44;;;41.34;28.99
7768;BME280;3928;42.626;23.382;2023-07-16T12:26:20;94382.69;;;41.44;28.05
7768;BME280;3928;42.626;23.382;2023-07-16T12:28:47;94382.19;;;41.02;27.45
7768;BME280;3928;42.626;23.382;2023-07-16T12:31:14;94371.63;;;40.94;28.34
7768;BME280;3928;42.626;23.382;2023-07-16T12:33:41;94380.97;;;40.65;27.32
7768;BME280;3928;42.626;23.382;2023-07-16T12:36:08;94379.22;;;39.98;28.67
7768;BME280;3928;42.626;23.382;2023-07-16T12:38:36;94320.44;;;39.68;29.12
7768;BME280;3928;42.626;23.382;2023-07-16T12:41:03;94375.13;;;40.22;28.82
7768;BME280;3928;42.626;23.382;2023-07-16T12:43:30;94372.84;;;40.19;28.48
7768;BME280;3928;42.626;23.382;2023-07-16T12:45:59;94379.50;;;40.29;29.37
7768;BME280;3928;42.626;23.382;2023-07-16T12:48:26;94370.22;;;40.52;29.40
7768;BME280;3928;42.626;23.382;2023-07-16T12:50:53;94369.16;;;40.40;27.83
7768;BME280;3928;42.626;23.382;2023-07-16T12:53:20;94367.88;;;40.22;28.04
7768;BME280;3928;42.626;23.382;2023-07-16T12:55:48;94370.16;;;40.12;29.25
7768;BME280;3928;42.626;23.382;2023-07-16T12:58:15;94349.22;;;39.40;28.74
7768;BME280;3928;42.626;23.382;2023-07-16T13:00:42;94365.84;;;39.15;29.45
7768;BME280;3928;42.626;23.382;2023-07-16T13:03:08;94358.94;;;39.00;30.22
7768;BME280;3928;42.626;23.382;2023-07-16T13:05:37;94359.28;;;38.90;29.83
7768;BME280;3928;42.626;23.382;2023-07-16T13:08:04;94355.28;;;39.07;30.70
7768;BME280;3928;42.626;23.382;2023-07-16T13:10:30;94353.97;;;39.38;29.90
7768;BME280;3928;42.626;23.382;2023-07-16T13:12:59;94352.25;;;39.58;29.96